Time;durP1;ratioP1;P1;durP2;ratioP2;P2;SDS_P1;SDS_P2;PMS_P1;PMS_P2;Temp;Humidity;BMP_temperature;BMP_pressure;BME280_temperature;BME280_humidity;BME280_pressure;Samples;Min_cycle;Max_cycle;Signal;HPM_P1;HPM_P2
2022/05/11 00:01:59;;;;;;;21.37;19.30;;;18.90;96.50;;;;;;5066654;28;20707;-86
2022/05/11 00:04:26;;;;;;;20.97;18.97;;;18.80;96.70;;;;;;5064486;28;20481;-86
2022/05/11 00:06:54;;;;;;;20.63;18.53;;;18.80;97.10;;;;;;5063930;28;20565;-86
2022/05/11 00:09:21;;;;;;;22.03;19.80;;;18.80;97.10;;;;;;5063617;28;20446;-87
2022/05/11 00:11:47;;;;;;;21.00;18.97;;;18.90;96.70;;;;;;5063108;28;20604;-86
2022/05/11 00:14:14;;;;;;;18.77;16.87;;;18.90;96.80;;;;;;5063391;28;20441;-86
2022/05/11 00:16:42;;;;;;;20.10;18.00;;;18.90;96.90;;;;;;5066350;28;20490;-86
2022/05/11 00:19:09;;;;;;;20.30;18.60;;;18.80;96.90;;;;;;5062194;28;20449;-88
2022/05/11 00:21:36;;;;;;;20.57;18.77;;;18.70;97.10;;;;;;5062541;28;20457;-86
2022/05/11 00:24:03;;;;;;;23.30;20.90;;;18.60;97.40;;;;;;5055237;28;20484;-86
2022/05/11 00:26:30;;;;;;;22.27;20.17;;;18.60;97.80;;;;;;5059377;28;20480;-85
2022/05/11 00:28:57;;;;;;;20.47;18.30;;;18.50;97.90;;;;;;5061876;28;20450;-85
2022/05/11 00:31:23;;;;;;;19.57;17.97;;;18.50;98.30;;;;;;5060576;28;20503;-86
2022/05/11 00:33:52;;;;;;;21.60;19.47;;;18.40;98.60;;;;;;5062692;28;20438;-86
2022/05/11 00:36:19;;;;;;;22.33;20.13;;;18.40;98.90;;;;;;5074747;28;21003;-86
2022/05/11 00:38:47;;;;;;;20.67;18.60;;;18.40;99.10;;;;;;5064092;28;20445;-86
2022/05/11 00:41:14;;;;;;;24.67;19.87;;;18.40;99.10;;;;;;5064983;28;20471;-86
2022/05/11 00:43:43;;;;;;;21.10;19.00;;;18.30;99.40;;;;;;5064091;28;20452;-85
2022/05/11 00:46:19;;;;;;;22.37;20.03;;;18.30;99.50;;;;;;5067012;28;20537;-87
2022/05/11 00:51:39;;;;;;;24.33;21.67;;;18.20;99.90;;;;;;5052858;28;20479;-86
2022/05/11 00:54:06;;;;;;;23.90;21.40;;;18.20;99.90;;;;;;5073345;28;20468;-86
2022/05/11 00:56:35;;;;;;;23.50;21.40;;;18.10;99.90;;;;;;5075953;28;20460;-85
2022/05/11 00:59:09;;;;;;;23.43;21.10;;;18.00;99.90;;;;;;5074114;28;20469;-85
2022/05/11 01:01:36;;;;;;;22.87;20.57;;;18.00;99.90;;;;;;5076961;28;20441;-85
2022/05/11 01:04:08;;;;;;;21.33;19.50;;;17.90;99.90;;;;;;5073871;28;20444;-85
2022/05/11 01:06:37;;;;;;;23.07;20.83;;;18.00;99.90;;;;;;5074008;28;20487;-86
2022/05/11 01:09:05;;;;;;;21.30;19.53;;;18.00;99.90;;;;;;5071109;28;20428;-86
2022/05/11 01:11:33;;;;;;;21.27;19.20;;;18.00;99.90;;;;;;5067615;28;20516;-86
2022/05/11 01:14:00;;;;;;;21.00;19.10;;;18.00;99.90;;;;;;5069882;28;20523;-87
2022/05/11 01:16:30;;;;;;;21.80;19.90;;;17.90;99.90;;;;;;5065096;28;20466;-87
2022/05/11 01:18:58;;;;;;;21.57;19.47;;;17.70;99.90;;;;;;5065648;28;20455;-87
2022/05/11 01:21:34;;;;;;;20.80;18.83;;;17.70;99.90;;;;;;5067129;28;20421;-86
2022/05/11 01:24:10;;;;;;;22.23;20.07;;;17.70;99.90;;;;;;5066149;28;20455;-86
2022/05/11 01:26:38;;;;;;;23.83;21.60;;;17.80;99.90;;;;;;5070145;28;20474;-86
2022/05/11 01:29:05;;;;;;;22.43;20.27;;;17.70;99.90;;;;;;5078804;28;20514;-85
2022/05/11 01:31:32;;;;;;;24.00;21.57;;;17.60;99.90;;;;;;5078454;28;20436;-87
2022/05/11 01:33:59;;;;;;;29.00;21.70;;;17.60;99.90;;;;;;5078195;28;20410;-89
2022/05/11 01:36:28;;;;;;;22.23;20.07;;;17.60;99.90;;;;;;5077709;28;20458;-87
2022/05/11 01:38:57;;;;;;;22.30;20.10;;;17.60;99.90;;;;;;5066533;28;20449;-86
2022/05/11 01:41:28;;;;;;;22.80;20.70;;;17.60;99.90;;;;;;5060632;28;20448;-86
2022/05/11 01:43:56;;;;;;;21.50;19.50;;;17.50;99.90;;;;;;5074072;28;20435;-87
2022/05/11 01:46:23;;;;;;;22.73;20.33;;;17.40;99.90;;;;;;5077658;28;20479;-87
2022/05/11 01:48:50;;;;;;;20.87;18.87;;;17.50;99.90;;;;;;5079539;28;20420;-86
2022/05/11 01:51:18;;;;;;;21.57;19.50;;;17.50;99.90;;;;;;5079603;28;20474;-86
2022/05/11 01:53:47;;;;;;;20.13;18.30;;;17.50;99.90;;;;;;5078975;28;20444;-85
2022/05/11 01:56:14;;;;;;;21.97;19.97;;;17.40;99.90;;;;;;5063147;28;20469;-84
2022/05/11 01:58:42;;;;;;;18.23;16.60;;;17.50;99.90;;;;;;5070939;28;20437;-84
2022/05/11 02:01:10;;;;;;;18.47;16.73;;;17.50;99.90;;;;;;5071315;28;20441;-85
2022/05/11 02:03:37;;;;;;;19.57;17.70;;;17.50;99.90;;;;;;5076220;28;20452;-86
2022/05/11 02:08:48;;;;;;;19.13;17.33;;;17.30;99.90;;;;;;5066286;28;20543;-85
2022/05/11 02:11:16;;;;;;;20.93;18.27;;;17.30;99.90;;;;;;5070949;28;20456;-84
2022/05/11 02:13:45;;;;;;;20.60;18.57;;;17.30;99.90;;;;;;5075228;28;20452;-86
2022/05/11 02:16:13;;;;;;;20.50;18.30;;;17.30;99.90;;;;;;5066037;28;20444;-85
2022/05/11 02:18:41;;;;;;;24.03;20.40;;;17.30;99.90;;;;;;5068505;28;20809;-85
2022/05/11 02:21:08;;;;;;;21.47;19.47;;;17.30;99.90;;;;;;5057461;28;20445;-85
2022/05/11 02:23:36;;;;;;;20.70;18.80;;;17.20;99.90;;;;;;5071510;28;20448;-85
2022/05/11 02:26:04;;;;;;;20.60;18.83;;;17.20;99.90;;;;;;5062239;28;20476;-86
2022/05/11 02:28:31;;;;;;;21.90;19.80;;;17.20;99.90;;;;;;5072472;28;20443;-85
2022/05/11 02:30:58;;;;;;;20.57;18.47;;;17.20;99.90;;;;;;5086409;28;20439;-85
2022/05/11 02:33:26;;;;;;;22.07;19.87;;;17.20;99.90;;;;;;5071819;28;20949;-87
2022/05/11 02:35:54;;;;;;;21.20;19.17;;;17.00;99.90;;;;;;5065890;28;20441;-86
2022/05/11 02:38:23;;;;;;;20.73;18.73;;;17.10;99.90;;;;;;5061127;28;20437;-85
2022/05/11 02:40:51;;;;;;;21.20;19.20;;;17.20;99.90;;;;;;5046531;28;20437;-85
2022/05/11 02:43:18;;;;;;;19.23;17.43;;;17.10;99.90;;;;;;5053808;28;20456;-86
2022/05/11 02:45:46;;;;;;;18.50;16.90;;;17.10;99.90;;;;;;5053639;28;20481;-85
2022/05/11 02:48:17;;;;;;;21.57;18.33;;;17.10;99.90;;;;;;5046465;28;20464;-85
2022/05/11 02:50:47;;;;;;;21.00;16.30;;;17.00;99.90;;;;;;5049860;28;20442;-84
2022/05/11 02:53:15;;;;;;;21.43;19.50;;;17.00;99.90;;;;;;5061370;28;20475;-85
2022/05/11 02:55:44;;;;;;;17.63;16.03;;;16.90;99.90;;;;;;5051265;28;20444;-86
2022/05/11 02:58:11;;;;;;;18.30;16.70;;;17.00;99.90;;;;;;5055530;28;20461;-86
2022/05/11 03:00:39;;;;;;;19.77;17.87;;;17.00;99.90;;;;;;5063659;28;20448;-85
2022/05/11 03:03:06;;;;;;;19.93;18.13;;;17.00;99.90;;;;;;5054290;28;20432;-88
2022/05/11 03:05:34;;;;;;;21.67;18.00;;;17.00;99.90;;;;;;5040606;28;20479;-84
2022/05/11 03:08:02;;;;;;;19.33;17.40;;;17.00;99.90;;;;;;5045691;28;20484;-85
2022/05/11 03:10:29;;;;;;;17.70;15.90;;;17.00;99.90;;;;;;5047558;28;20438;-86
2022/05/11 03:12:56;;;;;;;19.40;17.43;;;17.00;99.90;;;;;;5049068;28;20921;-85
2022/05/11 03:15:22;;;;;;;19.63;17.57;;;17.00;99.90;;;;;;5052928;28;20449;-85
2022/05/11 03:17:49;;;;;;;19.83;17.73;;;17.00;99.90;;;;;;5061654;28;20474;-84
2022/05/11 03:20:18;;;;;;;18.63;16.80;;;17.00;99.90;;;;;;5080087;28;20432;-86
2022/05/11 03:22:45;;;;;;;18.80;16.00;;;17.00;99.90;;;;;;5079787;28;20441;-85
2022/05/11 03:25:13;;;;;;;18.50;16.57;;;17.00;99.90;;;;;;5079217;28;20456;-84
2022/05/11 03:27:40;;;;;;;18.50;16.10;;;17.00;99.90;;;;;;5060017;28;20464;-87
2022/05/11 03:30:08;;;;;;;17.13;15.43;;;17.00;99.90;;;;;;5061690;28;20511;-86
2022/05/11 03:35:19;;;;;;;16.33;14.93;;;17.00;99.90;;;;;;5051801;28;20450;-85
2022/05/11 03:37:46;;;;;;;16.40;14.80;;;17.00;99.90;;;;;;5047152;28;20468;-85
2022/05/11 03:40:14;;;;;;;16.47;14.97;;;17.10;99.90;;;;;;5048426;28;20954;-85
2022/05/11 03:42:42;;;;;;;18.00;15.00;;;17.00;99.90;;;;;;5046036;28;20449;-85
2022/05/11 03:45:12;;;;;;;16.17;14.57;;;17.00;99.90;;;;;;5050040;28;20905;-85
2022/05/11 03:47:39;;;;;;;17.13;14.93;;;16.90;99.90;;;;;;5063083;28;20557;-85
2022/05/11 03:50:08;;;;;;;16.60;15.07;;;16.90;99.90;;;;;;5056695;28;20806;-86
2022/05/11 03:52:35;;;;;;;16.53;15.00;;;17.00;99.90;;;;;;5055889;28;20452;-85
2022/05/11 03:55:03;;;;;;;18.50;16.80;;;16.90;99.90;;;;;;5055830;28;20441;-85
2022/05/11 03:57:32;;;;;;;17.27;15.60;;;16.90;99.90;;;;;;5062729;28;20529;-85
2022/05/11 03:59:59;;;;;;;17.43;15.77;;;16.90;99.90;;;;;;5064169;28;21001;-85
2022/05/11 04:02:25;;;;;;;19.33;16.27;;;16.90;99.90;;;;;;5058068;28;20449;-85
2022/05/11 04:04:52;;;;;;;15.90;14.13;;;17.00;99.90;;;;;;5062698;28;20844;-86
2022/05/11 04:07:19;;;;;;;16.60;15.00;;;17.00;99.90;;;;;;5058810;28;20473;-84
2022/05/11 04:09:46;;;;;;;17.33;14.73;;;17.00;99.90;;;;;;5065948;28;20839;-84
2022/05/11 04:12:13;;;;;;;18.53;14.67;;;17.00;99.90;;;;;;5071765;28;20790;-86
2022/05/11 04:14:41;;;;;;;15.07;13.53;;;17.00;99.90;;;;;;5058638;28;20450;-86
2022/05/11 04:17:08;;;;;;;13.93;12.73;;;16.90;99.90;;;;;;5044754;28;20467;-85
2022/05/11 04:19:37;;;;;;;17.33;15.53;;;16.90;99.90;;;;;;5055429;28;20459;-85
2022/05/11 04:22:04;;;;;;;16.33;14.63;;;16.90;99.90;;;;;;5042094;28;20456;-86
2022/05/11 04:24:30;;;;;;;15.63;14.03;;;16.90;99.90;;;;;;5042508;28;20459;-85
2022/05/11 04:29:26;;;;;;;15.00;13.57;;;16.90;99.90;;;;;;5095891;22;20519;-88
2022/05/11 04:31:56;;;;;;;13.57;12.27;;;16.90;99.90;;;;;;5052877;28;20480;-88
2022/05/11 04:34:23;;;;;;;15.60;14.10;;;16.90;99.90;;;;;;5053036;28;20453;-87
2022/05/11 04:36:50;;;;;;;17.50;15.00;;;16.90;99.90;;;;;;5053966;28;20441;-88
2022/05/11 04:39:17;;;;;;;16.73;12.93;;;16.80;99.90;;;;;;5056177;28;20518;-88
2022/05/11 04:41:44;;;;;;;13.93;12.53;;;16.90;99.90;;;;;;5054714;28;20957;-88
2022/05/11 04:44:10;;;;;;;19.80;15.43;;;16.90;99.90;;;;;;5052769;28;20448;-88
2022/05/11 04:46:38;;;;;;;15.87;14.27;;;16.90;99.90;;;;;;5052746;28;20487;-88
2022/05/11 04:49:20;;;;;;;16.40;14.80;;;17.00;99.90;;;;;;5055025;28;20590;-88
2022/05/11 04:51:49;;;;;;;15.53;14.13;;;17.00;99.90;;;;;;5053248;28;20499;-88
2022/05/11 04:54:16;;;;;;;20.23;14.57;;;17.10;99.90;;;;;;5052345;28;20464;-88
2022/05/11 04:56:43;;;;;;;16.90;13.93;;;17.10;99.90;;;;;;5052874;28;20446;-88
2022/05/11 04:59:12;;;;;;;15.17;13.83;;;17.10;99.90;;;;;;5076555;28;20446;-88
2022/05/11 05:01:39;;;;;;;14.80;13.40;;;17.20;99.90;;;;;;5076596;28;20448;-88
2022/05/11 05:04:08;;;;;;;19.47;14.10;;;17.30;99.90;;;;;;5074267;28;20560;-89
2022/05/11 05:06:35;;;;;;;17.13;15.57;;;17.30;99.90;;;;;;5071305;28;20543;-88
2022/05/11 05:09:03;;;;;;;17.27;14.37;;;17.40;99.90;;;;;;5052489;28;20457;-89
2022/05/11 05:11:30;;;;;;;18.80;13.40;;;17.50;99.90;;;;;;5061114;28;20451;-89
2022/05/11 05:13:56;;;;;;;17.93;13.73;;;17.70;99.90;;;;;;5059615;28;20455;-89
2022/05/11 05:16:23;;;;;;;15.30;13.20;;;17.80;99.90;;;;;;5059758;28;20444;-89
2022/05/11 05:18:51;;;;;;;14.60;13.10;;;18.00;99.90;;;;;;5056266;28;20462;-89
2022/05/11 05:21:19;;;;;;;14.17;12.67;;;18.20;99.90;;;;;;5063957;28;20452;-86
2022/05/11 05:23:46;;;;;;;18.70;11.47;;;18.50;99.90;;;;;;5059165;28;20818;-87
2022/05/11 05:26:12;;;;;;;18.33;12.37;;;18.90;99.00;;;;;;5058774;28;20514;-86
2022/05/11 05:31:25;;;;;;;13.03;11.33;;;19.40;97.00;;;;;;5057363;28;20724;-88
2022/05/11 05:33:58;;;;;;;14.60;13.17;;;19.60;96.30;;;;;;5068968;28;20468;-87
2022/05/11 05:36:26;;;;;;;14.80;12.97;;;20.00;95.40;;;;;;5070142;28;20459;-87
2022/05/11 05:38:53;;;;;;;14.67;11.40;;;20.30;94.60;;;;;;5075853;28;20467;-88
2022/05/11 05:41:20;;;;;;;18.73;12.20;;;20.70;93.60;;;;;;5063943;28;20444;-88
2022/05/11 05:43:46;;;;;;;17.57;12.80;;;21.10;92.90;;;;;;5053785;28;20452;-88
2022/05/11 05:46:16;;;;;;;16.47;12.13;;;21.40;92.10;;;;;;5062745;28;20846;-88
2022/05/11 05:48:42;;;;;;;14.20;12.70;;;21.70;90.90;;;;;;5057842;28;20503;-89
2022/05/11 05:51:11;;;;;;;14.77;11.43;;;22.00;90.20;;;;;;5058914;28;20830;-88
2022/05/11 05:53:40;;;;;;;15.60;12.13;;;22.30;89.60;;;;;;5057107;28;20443;-88
2022/05/11 05:56:07;;;;;;;10.60;9.60;;;22.90;87.70;;;;;;5063748;28;20443;-88
2022/05/11 05:58:34;;;;;;;15.50;11.27;;;23.20;85.70;;;;;;5061674;28;20876;-88
2022/05/11 06:01:01;;;;;;;12.17;10.40;;;23.40;83.40;;;;;;5053517;28;20868;-88
2022/05/11 06:03:29;;;;;;;11.87;10.77;;;23.70;81.80;;;;;;5052762;28;20452;-89
2022/05/11 06:05:56;;;;;;;11.00;9.90;;;24.00;80.80;;;;;;5052840;28;20487;-88
2022/05/11 06:08:23;;;;;;;12.57;10.60;;;24.40;79.10;;;;;;5052010;28;20549;-89
2022/05/11 06:10:54;;;;;;;10.27;9.20;;;24.80;76.80;;;;;;5052096;28;20463;-89
2022/05/11 06:13:22;;;;;;;12.20;10.60;;;25.30;75.10;;;;;;5048860;28;20451;-88
2022/05/11 06:15:50;;;;;;;10.77;9.73;;;25.70;73.30;;;;;;5036241;28;20445;-88
2022/05/11 06:18:17;;;;;;;16.10;10.63;;;25.90;71.50;;;;;;5059497;28;20460;-89
2022/05/11 06:20:44;;;;;;;12.53;9.10;;;25.90;71.20;;;;;;5044050;28;20449;-88
2022/05/11 06:23:11;;;;;;;10.87;9.57;;;26.30;70.30;;;;;;5053112;28;20448;-90
2022/05/11 06:25:39;;;;;;;11.33;9.07;;;26.70;68.50;;;;;;5052610;28;20452;-86
2022/05/11 06:28:08;;;;;;;10.93;9.07;;;26.70;66.90;;;;;;5046088;28;20485;-86
2022/05/11 06:30:35;;;;;;;14.90;10.50;;;26.70;67.20;;;;;;5036155;28;20942;-87
2022/05/11 06:33:03;;;;;;;9.60;8.70;;;27.00;67.10;;;;;;5053008;28;20437;-86
2022/05/11 06:35:30;;;;;;;9.83;8.83;;;27.20;65.50;;;;;;5050254;28;20452;-86
2022/05/11 06:38:01;;;;;;;9.23;8.33;;;27.30;64.90;;;;;;5043743;28;20464;-86
2022/05/11 06:40:28;;;;;;;9.27;8.30;;;27.60;63.90;;;;;;5051348;28;20531;-87
2022/05/11 06:42:54;;;;;;;11.60;9.87;;;27.70;63.10;;;;;;5044987;28;20440;-87
2022/05/11 06:45:23;;;;;;;11.13;10.10;;;27.80;63.70;;;;;;5048051;28;20998;-86
2022/05/11 06:47:50;;;;;;;18.30;8.70;;;28.10;62.40;;;;;;5062771;28;20515;-87
2022/05/11 06:50:17;;;;;;;9.07;8.40;;;28.20;61.50;;;;;;5067681;28;20440;-86
2022/05/11 06:52:43;;;;;;;8.83;8.13;;;28.70;60.70;;;;;;5051190;28;20449;-88
2022/05/11 07:00:41;;;;;;;9.50;8.70;;;29.20;58.70;;;;;;5045176;28;20473;-90
2022/05/11 07:03:07;;;;;;;8.00;7.30;;;28.40;59.10;;;;;;5045019;28;20445;-86
2022/05/11 07:05:36;;;;;;;9.33;8.40;;;28.50;59.10;;;;;;5050595;28;20448;-86
2022/05/11 07:08:04;;;;;;;8.67;7.97;;;28.10;59.60;;;;;;5067073;28;20457;-89
2022/05/11 07:10:31;;;;;;;12.20;7.33;;;28.30;59.50;;;;;;5067515;28;20445;-89
2022/05/11 07:12:58;;;;;;;7.80;7.10;;;29.20;59.20;;;;;;5055809;28;20472;-86
2022/05/11 07:15:28;;;;;;;9.90;7.70;;;30.00;57.70;;;;;;5040978;28;20512;-88
2022/05/11 07:17:59;;;;;;;9.37;7.90;;;29.80;56.90;;;;;;5061516;28;20496;-86
2022/05/11 07:20:30;;;;;;;7.87;7.10;;;30.10;57.40;;;;;;5070204;28;20956;-86
2022/05/11 07:22:57;;;;;;;8.03;7.23;;;29.60;56.40;;;;;;5040650;28;20818;-86
2022/05/11 07:25:26;;;;;;;9.03;7.90;;;30.20;56.20;;;;;;5055647;28;20979;-86
2022/05/11 07:27:53;;;;;;;8.07;6.57;;;30.40;56.00;;;;;;5055170;28;20992;-85
2022/05/11 07:30:22;;;;;;;8.60;7.53;;;30.90;54.90;;;;;;5055126;28;20497;-86
2022/05/11 07:32:49;;;;;;;7.60;6.90;;;31.30;54.50;;;;;;5054829;28;20452;-85
2022/05/11 07:35:17;;;;;;;5.87;5.40;;;31.50;53.70;;;;;;5068306;28;20451;-86
2022/05/11 07:37:46;;;;;;;5.47;5.07;;;31.20;53.50;;;;;;5074322;28;20456;-86
2022/05/11 07:40:14;;;;;;;5.60;4.60;;;31.50;51.50;;;;;;5055831;28;21028;-86
2022/05/11 07:42:41;;;;;;;4.93;4.53;;;30.60;51.00;;;;;;5054442;28;20459;-86
2022/05/11 07:45:08;;;;;;;5.73;5.23;;;29.30;52.10;;;;;;5054767;28;20452;-86
2022/05/11 07:47:35;;;;;;;6.17;4.33;;;29.50;51.40;;;;;;5053631;28;20494;-86
2022/05/11 07:50:02;;;;;;;6.10;5.53;;;29.20;53.40;;;;;;5054270;28;20456;-86
2022/05/11 07:52:30;;;;;;;5.77;5.37;;;30.00;52.10;;;;;;5062492;28;20502;-87
2022/05/11 07:54:57;;;;;;;5.80;5.20;;;30.70;52.00;;;;;;5054361;28;20510;-87
2022/05/11 08:00:09;;;;;;;5.97;5.30;;;30.90;49.10;;;;;;5055073;28;20490;-86
2022/05/11 08:02:39;;;;;;;4.70;4.30;;;31.70;49.70;;;;;;5066973;28;20455;-86
2022/05/11 08:05:08;;;;;;;4.87;4.30;;;31.30;48.50;;;;;;5071793;28;20441;-86
2022/05/11 08:07:40;;;;;;;5.63;5.13;;;31.50;49.20;;;;;;5070053;28;20475;-86
2022/05/11 08:10:10;;;;;;;6.10;4.47;;;31.10;48.60;;;;;;5077744;28;20440;-86
2022/05/11 08:12:37;;;;;;;5.50;4.17;;;31.10;48.70;;;;;;5059429;28;20447;-85
2022/05/11 08:15:04;;;;;;;4.73;4.33;;;30.40;48.40;;;;;;5067813;28;20448;-86
2022/05/11 08:17:34;;;;;;;4.33;3.93;;;29.90;49.30;;;;;;5059336;28;20496;-86
2022/05/11 08:20:01;;;;;;;4.80;4.40;;;29.60;49.00;;;;;;5064339;28;20837;-86
2022/05/11 08:22:28;;;;;;;4.87;4.33;;;29.90;50.50;;;;;;5058298;28;20440;-86
2022/05/11 08:24:57;;;;;;;4.43;4.03;;;31.20;48.70;;;;;;5054619;28;20467;-86
2022/05/11 08:27:26;;;;;;;4.63;4.13;;;31.70;47.90;;;;;;5053212;28;20546;-86
2022/05/11 08:35:21;;;;;;;4.17;3.87;;;31.00;48.20;;;;;;5054161;28;20435;-86
2022/05/11 08:37:48;;;;;;;4.30;3.90;;;31.80;47.30;;;;;;5053348;28;20549;-86
2022/05/11 08:40:28;;;;;;;5.00;4.50;;;32.70;45.60;;;;;;5053906;28;20452;-86
2022/05/11 08:42:55;;;;;;;6.97;3.70;;;32.20;45.70;;;;;;5053855;28;20551;-86
2022/05/11 08:45:23;;;;;;;4.10;3.80;;;32.70;44.90;;;;;;5053005;28;20486;-86
2022/05/11 08:47:50;;;;;;;3.90;3.70;;;32.10;43.90;;;;;;5053363;28;20484;-86
2022/05/11 08:50:20;;;;;;;4.13;3.53;;;31.80;44.20;;;;;;5053276;28;20933;-86
2022/05/11 08:52:55;;;;;;;10.00;3.90;;;32.00;44.30;;;;;;5053277;28;20489;-86
2022/05/11 08:55:34;;;;;;;4.53;4.13;;;32.10;43.20;;;;;;5067173;28;20450;-87
2022/05/11 08:58:06;;;;;;;4.43;4.10;;;30.90;43.80;;;;;;5069004;28;20464;-86
2022/05/11 09:00:35;;;;;;;5.97;4.80;;;31.00;45.90;;;;;;5056110;28;20455;-86
2022/05/11 09:03:07;;;;;;;4.07;3.67;;;31.70;45.30;;;;;;5053648;28;20456;-86
2022/05/11 09:05:34;;;;;;;4.63;4.20;;;32.10;44.20;;;;;;5072675;28;20459;-86
2022/05/11 09:08:04;;;;;;;5.87;4.47;;;32.40;44.60;;;;;;5067641;28;20989;-86
2022/05/11 09:10:36;;;;;;;5.37;4.30;;;32.70;44.30;;;;;;5053608;28;20444;-86
2022/05/11 09:13:05;;;;;;;6.40;4.70;;;32.70;42.60;;;;;;5053827;28;20444;-86
2022/05/11 09:15:55;;;;;;;6.20;5.70;;;32.00;42.20;;;;;;5055496;28;20466;-86
2022/05/11 09:18:23;;;;;;;6.03;4.60;;;32.50;43.60;;;;;;5052739;28;20984;-86
2022/05/11 09:20:52;;;;;;;5.30;4.80;;;32.00;43.90;;;;;;5053002;28;20441;-85
2022/05/11 09:23:28;;;;;;;4.90;4.60;;;32.40;44.50;;;;;;5052658;28;20506;-86
2022/05/11 09:25:59;;;;;;;5.03;4.63;;;32.70;44.30;;;;;;5058557;28;20592;-86
2022/05/11 09:28:27;;;;;;;5.03;4.40;;;32.70;44.30;;;;;;5075616;28;20488;-86
2022/05/11 09:31:00;;;;;;;5.33;4.93;;;32.40;43.40;;;;;;5056368;28;20440;-86
2022/05/11 09:33:29;;;;;;;4.43;4.03;;;33.10;43.90;;;;;;5054085;28;20826;-86
2022/05/11 09:35:56;;;;;;;6.50;5.10;;;33.60;42.40;;;;;;5054114;28;20448;-85
2022/05/11 09:38:35;;;;;;;5.27;4.77;;;32.70;42.60;;;;;;5054079;28;20841;-86
2022/05/11 09:41:10;;;;;;;9.30;5.20;;;32.70;43.90;;;;;;5053026;28;20471;-86
2022/05/11 09:43:39;;;;;;;6.37;4.57;;;32.00;43.50;;;;;;5052591;28;20469;-86
2022/05/11 09:46:20;;;;;;;11.27;5.97;;;31.50;44.40;;;;;;5052572;28;20936;-86
2022/05/11 09:49:04;;;;;;;7.63;4.70;;;31.80;44.60;;;;;;5052232;28;20669;-86
2022/05/11 09:51:35;;;;;;;7.70;5.10;;;31.50;45.00;;;;;;5052774;28;20448;-86
2022/05/11 09:54:19;;;;;;;7.20;5.40;;;31.70;45.90;;;;;;5052317;28;20452;-86
2022/05/11 09:56:56;;;;;;;5.67;5.13;;;31.60;44.10;;;;;;5052658;28;20453;-86
2022/05/11 09:59:25;;;;;;;6.40;5.47;;;31.30;45.50;;;;;;5053349;28;20467;-86
2022/05/11 10:02:01;;;;;;;5.73;5.33;;;31.90;46.30;;;;;;5052787;28;20448;-86
2022/05/11 10:04:33;;;;;;;5.13;4.80;;;32.10;44.60;;;;;;5054584;28;20947;-86
2022/05/11 10:07:02;;;;;;;6.20;5.70;;;32.50;44.90;;;;;;5052552;28;20494;-86
2022/05/11 10:09:33;;;;;;;5.80;5.30;;;33.10;44.10;;;;;;5053431;28;20444;-86
2022/05/11 10:12:05;;;;;;;5.57;5.07;;;34.00;43.00;;;;;;5055960;28;20961;-86
2022/05/11 10:22:59;;;;;;;5.90;5.50;;;32.70;43.10;;;;;;5058366;28;20477;-87
2022/05/11 10:25:29;;;;;;;6.70;6.20;;;32.60;43.80;;;;;;5057775;28;20439;-87
2022/05/11 10:28:07;;;;;;;8.33;5.80;;;32.00;43.80;;;;;;5102648;22;20483;-82
2022/05/11 10:30:41;;;;;;;5.70;5.30;;;32.10;44.50;;;;;;5062926;28;20968;-83
2022/05/11 10:33:51;;;;;;;6.10;5.57;;;32.30;45.20;;;;;;5065320;28;20458;-81
2022/05/11 10:36:25;;;;;;;6.10;5.47;;;33.10;43.50;;;;;;5042668;28;20502;-83
2022/05/11 10:39:03;;;;;;;4.87;4.50;;;33.50;43.10;;;;;;5057898;28;20455;-83
2022/05/11 10:41:37;;;;;;;6.27;5.67;;;34.00;42.70;;;;;;5056513;28;20536;-83
2022/05/11 10:44:25;;;;;;;6.20;5.10;;;33.60;42.00;;;;;;5058873;28;20945;-82
2022/05/11 10:46:58;;;;;;;7.53;4.60;;;33.70;41.70;;;;;;5067131;28;20435;-82
2022/05/11 10:49:43;;;;;;;5.33;4.93;;;33.20;41.80;;;;;;5075253;28;20464;-82
2022/05/11 10:52:22;;;;;;;8.43;4.60;;;32.30;43.20;;;;;;5060048;28;20460;-82
2022/05/11 10:55:02;;;;;;;4.60;4.30;;;32.30;42.90;;;;;;5061860;28;20466;-83
2022/05/11 10:57:40;;;;;;;5.03;4.53;;;33.30;42.30;;;;;;5059504;28;20459;-82
2022/05/11 11:00:12;;;;;;;5.23;4.53;;;33.70;41.50;;;;;;5058422;28;20444;-82
2022/05/11 11:03:04;;;;;;;9.40;5.27;;;33.40;40.30;;;;;;5058444;28;20506;-83
2022/05/11 11:05:43;;;;;;;7.30;3.93;;;32.90;41.00;;;;;;5058186;28;20974;-83
2022/05/11 11:08:20;;;;;;;4.93;4.50;;;33.40;39.70;;;;;;5058425;28;20866;-82
2022/05/11 11:10:52;;;;;;;5.30;4.90;;;32.50;39.90;;;;;;5058288;28;20440;-82
2022/05/11 11:13:37;;;;;;;5.00;4.60;;;32.10;41.80;;;;;;5058143;28;20531;-83
2022/05/11 11:16:08;;;;;;;5.00;4.70;;;33.40;40.00;;;;;;5056834;28;20483;-83
2022/05/11 11:18:38;;;;;;;4.83;3.80;;;35.30;39.20;;;;;;5057468;28;20472;-83
2022/05/11 11:21:08;;;;;;;4.97;4.57;;;36.60;37.40;;;;;;5056346;28;20448;-82
2022/05/11 11:23:37;;;;;;;4.40;4.10;;;37.00;36.00;;;;;;5057075;28;20452;-82
2022/05/11 11:26:07;;;;;;;8.73;6.70;;;36.30;36.40;;;;;;5058295;28;20473;-82
2022/05/11 11:29:18;;;;;;;4.63;4.23;;;36.80;36.10;;;;;;5057856;28;20503;-82
2022/05/11 11:32:15;;;;;;;4.60;4.30;;;36.50;34.60;;;;;;5063168;28;20543;-83
2022/05/11 11:34:48;;;;;;;4.20;3.90;;;37.20;35.60;;;;;;5060318;28;21012;-82
2022/05/11 11:37:45;;;;;;;5.17;4.17;;;37.10;34.40;;;;;;5056990;28;20455;-82
2022/05/11 11:40:21;;;;;;;5.10;4.70;;;34.80;37.30;;;;;;5057741;28;20526;-82
2022/05/11 11:42:49;;;;;;;4.97;4.53;;;34.10;37.70;;;;;;5056905;28;20550;-83
2022/05/11 11:45:57;;;;;;;7.77;5.40;;;34.70;36.90;;;;;;5055783;28;20448;-82
2022/05/11 11:48:26;;;;;;;5.67;5.17;;;34.50;37.80;;;;;;5056672;28;20988;-83
2022/05/11 11:50:55;;;;;;;4.93;4.53;;;34.20;37.80;;;;;;5057026;28;20444;-83
2022/05/11 11:53:24;;;;;;;4.63;4.23;;;35.90;36.70;;;;;;5056860;28;20443;-83
2022/05/11 11:55:51;;;;;;;8.30;5.07;;;36.50;36.50;;;;;;5055776;28;20444;-83
2022/05/11 11:58:26;;;;;;;8.50;5.43;;;37.40;36.00;;;;;;5064859;28;20996;-83
2022/05/11 12:01:04;;;;;;;6.40;5.07;;;38.80;34.70;;;;;;5057757;28;20453;-83
2022/05/11 12:03:35;;;;;;;6.00;4.50;;;38.90;33.50;;;;;;5057489;28;20440;-83
2022/05/11 12:17:30;;;;;;;4.63;3.63;;;35.30;32.70;;;;;;5055292;28;20963;-82
2022/05/11 12:20:09;;;;;;;7.97;4.70;;;33.90;34.20;;;;;;5058946;28;20548;-83
2022/05/11 12:22:42;;;;;;;4.90;4.00;;;35.00;34.90;;;;;;5056246;28;20435;-82
2022/05/11 12:25:26;;;;;;;4.60;3.87;;;36.70;33.60;;;;;;5055579;28;20440;-84
2022/05/11 12:27:54;;;;;;;3.93;3.63;;;38.70;31.20;;;;;;5055797;28;20488;-82
2022/05/11 12:30:24;;;;;;;6.00;3.80;;;39.50;29.70;;;;;;5056008;28;20482;-81
2022/05/11 12:32:54;;;;;;;4.30;3.40;;;37.50;29.10;;;;;;5058587;28;20975;-83
2022/05/11 12:35:27;;;;;;;3.97;3.57;;;37.60;29.90;;;;;;5057498;28;20448;-83
2022/05/11 12:37:56;;;;;;;3.70;3.40;;;37.10;29.10;;;;;;5056171;28;20532;-82
2022/05/11 12:40:23;;;;;;;4.70;3.50;;;35.80;30.20;;;;;;5055784;28;20471;-82
2022/05/11 12:42:52;;;;;;;4.97;3.83;;;36.00;30.20;;;;;;5055665;28;20828;-82
2022/05/11 12:45:22;;;;;;;4.70;3.33;;;34.40;30.40;;;;;;5055462;28;20965;-83
2022/05/11 12:47:52;;;;;;;4.77;3.30;;;34.10;32.10;;;;;;5056604;28;20481;-83
2022/05/11 12:50:24;;;;;;;4.30;3.40;;;35.00;30.60;;;;;;5055883;28;20487;-83
2022/05/11 12:53:02;;;;;;;4.43;3.50;;;35.00;30.20;;;;;;5055631;28;20463;-82
2022/05/11 12:55:33;;;;;;;4.07;2.93;;;35.10;30.60;;;;;;5055821;28;20436;-83
2022/05/11 12:58:00;;;;;;;4.80;4.00;;;34.50;30.10;;;;;;5056226;28;20844;-83
2022/05/11 13:00:29;;;;;;;4.83;4.07;;;34.40;31.90;;;;;;5055023;28;20449;-82
2022/05/11 13:02:56;;;;;;;4.77;3.70;;;34.70;30.90;;;;;;5058080;28;20506;-81
2022/05/11 13:05:26;;;;;;;5.13;4.10;;;35.20;31.10;;;;;;5068831;28;20444;-82
2022/05/11 13:07:57;;;;;;;5.00;3.40;;;35.70;30.90;;;;;;5062520;28;20488;-82
2022/05/11 13:10:30;;;;;;;6.37;3.43;;;36.60;30.20;;;;;;5057783;28;20508;-81
2022/05/11 13:12:58;;;;;;;11.53;4.33;;;35.60;29.60;;;;;;5056331;28;20506;-81
2022/05/11 13:15:33;;;;;;;3.50;3.17;;;33.80;30.70;;;;;;5055038;28;20940;-82
2022/05/11 13:18:00;;;;;;;3.73;3.40;;;33.50;31.30;;;;;;5054697;28;20460;-82
2022/05/11 13:20:33;;;;;;;4.20;3.23;;;33.30;32.10;;;;;;5056736;28;20464;-81
2022/05/11 13:23:01;;;;;;;3.27;3.07;;;33.60;31.10;;;;;;5055764;28;20440;-82
2022/05/11 13:25:45;;;;;;;13.10;4.17;;;33.50;32.00;;;;;;5054988;28;20877;-84
2022/05/11 13:28:16;;;;;;;9.47;4.03;;;34.10;31.10;;;;;;5058910;28;20552;-84
2022/05/11 13:30:45;;;;;;;5.23;3.00;;;33.60;31.40;;;;;;5057862;28;20468;-84
2022/05/11 13:33:42;;;;;;;7.93;3.53;;;33.60;31.80;;;;;;5055177;28;20515;-85
2022/05/11 13:36:15;;;;;;;7.37;3.47;;;34.00;31.20;;;;;;5061763;28;20467;-85
2022/05/11 13:39:03;;;;;;;4.07;3.47;;;34.10;31.70;;;;;;5055301;28;20464;-85